Latest Weather Observations for Thargomindah

IDQ60801

Issued at 8:02 am EST Friday 9 December 2016 (issued every 30 minutes, with the page automatically refreshed every 10 minutes)

About weather observations | Map of weather stations | Latest weather observations for QLD | Other Formats
Station Details ID: 045025 Name: THARGOMINDAH AIRPORT Lat: -27.99 Lon: 143.81 Height: 130.89 m
Data from the previous 72 hours. | See also: Recent months at Thargomindah
Date/Time
EST
Temp
°C
App
Temp
°C
Dew
Point
°C
Rel
Hum
%
Delta-T
°C
Wind Press
QNH
hPa
Press
MSL
hPa
Rain since
9am
mm
Dir  Spd
km/h
Gust
km/h
Spd
kts
Gust
kts
09/08:00am 20.2 13.8 5.4 38 7.3 SSE 28 39 15 21 1016.7 - 6.0
09/07:30am 19.8 14.4 6.5 42 6.7 SSE 24 35 13 19 1016.5 - 6.0
09/07:00am 19.1 13.8 6.9 45 6.2 SSE 24 35 13 19 1016.0 - 6.0
09/06:30am 18.7 13.4 6.9 46 6.0 SSE 24 35 13 19 1015.5 - 6.0
09/06:00am 18.3 14.0 7.7 50 5.4 SSE 20 30 11 16 1015.0 1014.0 6.0
09/05:30am 17.9 14.1 9.0 56 4.7 S 19 24 10 13 1014.4 - 6.0
09/05:00am 17.9 15.0 9.8 59 4.3 S 15 22 8 12 1014.0 - 6.0
09/04:30am 17.0 15.3 11.1 68 3.2 SSW 11 13 6 7 1013.3 - 6.0
09/04:00am 17.2 15.8 11.0 67 3.4 S 9 9 5 5 1012.9 - 6.0
09/03:30am 18.5 15.9 10.8 61 4.2 SSW 15 19 8 10 1012.6 - 6.0
09/03:00am 18.8 16.3 11.1 61 4.2 SSW 15 19 8 10 1012.2 1011.1 6.0
09/02:30am 19.4 16.6 11.2 59 4.5 SSW 17 20 9 11 1012.1 - 6.0
09/02:00am 20.2 17.6 10.6 54 5.2 SSW 15 19 8 10 1012.1 - 6.0
09/01:30am 21.0 18.7 11.9 56 5.1 SW 15 20 8 11 1012.1 - 6.0
09/01:00am 21.1 19.8 13.8 63 4.2 SW 13 19 7 10 1012.2 - 6.0
09/12:30am 20.9 20.4 15.0 69 3.5 SW 11 13 6 7 1012.3 - 6.0
09/12:00am 21.4 21.7 15.0 67 3.8 SSW 7 9 4 5 1012.3 1011.2 6.0
 
Date/Time
EST
Temp
°C
App
Temp
°C
Dew
Point
°C
Rel
Hum
%
Delta-T
°C
Wind Press
QNH
hPa
Press
MSL
hPa
Rain since
9am
mm
Dir  Spd
km/h
Gust
km/h
Spd
kts
Gust
kts
08/11:30pm 22.4 22.0 15.3 64 4.3 SSW 11 13 6 7 1012.3 - 6.0
08/11:00pm 23.0 22.8 15.8 64 4.4 SSW 11 15 6 8 1012.4 - 6.0
08/10:30pm 23.5 23.2 17.3 68 3.9 SSW 15 19 8 10 1012.3 - 6.0
08/10:00pm 23.7 24.0 18.8 74 3.1 SSW 15 20 8 11 1011.8 - 6.0
08/09:30pm 23.8 25.3 20.5 82 2.2 SW 13 17 7 9 1011.3 - 6.0
08/09:00pm 23.9 25.7 21.2 85 1.8 WSW 13 17 7 9 1010.9 1009.8 6.0
08/08:30pm 24.0 25.9 21.3 85 1.8 SW 13 17 7 9 1010.1 - 6.0
08/08:00pm 24.2 26.9 21.3 84 1.9 W 9 13 5 7 1009.7 - 6.0
08/07:30pm 24.2 26.7 21.1 83 2.0 WNW 9 13 5 7 1009.3 - 6.0
08/07:00pm 24.2 27.2 21.3 84 1.9 W 7 11 4 6 1009.1 - 6.0
08/06:30pm 23.9 25.7 21.8 88 1.4 SSW 15 19 8 10 1008.6 - 6.0
08/06:00pm 23.6 26.0 21.5 88 1.4 WSW 11 19 6 10 1007.9 1007.0 6.0
08/05:30pm 22.8 23.2 20.9 89 1.2 SW 20 32 11 17 1008.5 - 4.6
08/05:00pm 23.0 18.6 20.1 84 1.9 SW 43 63 23 34 1007.4 - 1.0
08/04:36pm 26.9 19.5 16.2 52 6.6 SW 50 69 27 37 1007.0 - 0.2
08/04:33pm 28.0 21.3 15.0 45 7.9 SW 44 59 24 32 1007.1 - 0.2
08/04:31pm 32.8 28.1 14.9 34 11.1 W 33 52 18 28 1006.8 - 0.2
08/04:30pm 33.1 28.7 14.2 32 11.6 W 30 46 16 25 1006.4 - 0.2
08/04:01pm 33.1 27.4 14.2 32 11.6 NW 37 56 20 30 1005.4 - 0.2
08/04:00pm 33.0 26.9 14.1 32 11.6 NW 39 56 21 30 1005.4 - 0.2
08/03:48pm 33.7 28.0 14.2 30 12.0 NW 37 56 20 30 1005.2 - 0.2
08/03:30pm 34.2 29.2 14.1 29 12.4 NW 33 46 18 25 1004.8 - 0.2
08/03:00pm 33.2 28.3 14.3 32 11.7 NW 33 46 18 25 1005.4 1004.1 0.2
08/02:30pm 33.9 29.2 14.4 31 12.0 NW 32 44 17 24 1005.6 - 0.2
08/02:00pm 33.7 29.1 14.7 32 11.8 NW 32 46 17 25 1005.9 - 0.2
08/01:41pm 33.2 29.4 14.8 33 11.4 WNW 28 46 15 25 1006.3 - 0.2
08/01:30pm 33.4 29.6 15.8 34 11.1 NW 30 39 16 21 1006.6 - 0.2
08/01:00pm 30.6 28.3 16.6 43 8.8 NNW 24 33 13 18 1007.5 - 0.2
08/12:30pm 29.8 27.2 16.9 45 8.2 NW 26 35 14 19 1008.2 - 0.2
08/12:00pm 29.0 25.9 17.5 49 7.3 NW 30 - 16 - - 1007.5 -
08/11:30am 27.3 24.9 18.3 58 5.8 NW 28 41 15 22 1008.8 - 0.0
08/11:07am 30.5 27.5 16.9 44 8.6 NW 28 46 15 25 1008.8 - 0.0
08/11:00am 31.4 28.1 15.0 37 10.1 NW 26 35 14 19 1008.8 - 0.0
08/10:30am 31.4 28.7 14.5 35 10.4 NW 22 30 12 16 1008.2 - 0.0
08/10:00am 31.3 28.5 14.4 35 10.3 NW 22 30 12 16 1008.5 - 0.0
08/09:30am 30.8 28.2 14.8 37 9.8 NW 22 32 12 17 1008.9 - 0.0
08/09:00am 30.7 27.5 15.2 39 9.6 NW 26 33 14 18 1008.8 1007.7 0.0
08/08:30am 30.0 26.4 15.3 41 9.1 NW 28 41 15 22 1009.0 - 0.0
08/08:00am 31.1 29.2 15.1 38 9.9 NNW 19 28 10 15 1008.6 - 0.0
08/07:30am 27.7 26.4 15.7 48 7.4 N 17 20 9 11 1008.5 - 0.0
08/07:00am 26.1 26.3 15.8 53 6.3 N 9 13 5 7 1008.1 - 0.0
08/06:30am 25.4 25.1 15.4 54 6.1 N 11 15 6 8 1008.2 - 0.0
08/06:00am 24.2 24.9 15.7 59 5.2 N 6 7 3 4 1007.9 1006.9 0.0
08/05:30am 22.9 23.4 15.5 63 4.5 N 7 9 4 5 1007.9 - 0.0
08/05:00am 22.4 23.8 15.3 64 4.3 NNE 2 9 1 5 1007.4 - 0.0
08/04:30am 22.7 23.7 15.3 63 4.4 ENE 4 7 2 4 1007.4 - 0.0
08/04:00am 22.8 24.3 15.6 64 4.3 E 2 7 1 4 1007.3 - 0.0
08/03:30am 23.3 25.3 15.9 63 4.5 CALM 0 0 0 0 1007.4 - 0.0
08/03:00am 23.0 23.6 15.3 62 4.6 S 6 9 3 5 1007.6 1006.6 0.0
08/02:30am 23.1 24.9 15.4 62 4.6 CALM 0 0 0 0 1007.7 - 0.0
08/02:00am 23.2 24.7 15.8 63 4.5 S 2 6 1 3 1008.2 - 0.0
08/01:30am 23.5 24.3 15.8 62 4.7 SSW 6 7 3 4 1008.5 - 0.0
08/01:00am 23.8 24.5 15.6 60 5.0 SSW 6 9 3 5 1009.0 - 0.0
08/12:30am 24.1 25.9 15.6 59 5.2 CALM 0 0 0 0 1009.3 - 0.0
08/12:00am 24.7 26.8 16.2 59 5.2 CALM 0 0 0 0 1009.6 1008.4 0.0
 
Date/Time
EST
Temp
°C
App
Temp
°C
Dew
Point
°C
Rel
Hum
%
Delta-T
°C
Wind Press
QNH
hPa
Press
MSL
hPa
Rain since
9am
mm
Dir  Spd
km/h
Gust
km/h
Spd
kts
Gust
kts
07/11:30pm 24.7 26.8 16.2 59 5.2 CALM 0 0 0 0 1009.9 - 0.0
07/11:00pm 25.0 26.0 16.4 59 5.3 E 6 6 3 3 1010.1 - 0.0
07/10:30pm 24.9 26.2 16.1 58 5.4 E 4 6 2 3 1010.5 - 0.0
07/10:00pm 25.3 27.4 16.2 57 5.6 CALM 0 0 0 0 1010.5 - 0.0
07/09:30pm 25.9 27.4 16.7 57 5.7 SE 4 6 2 3 1010.3 - 0.0
07/09:00pm 26.5 28.0 16.7 55 6.1 SE 4 6 2 3 1010.4 1009.2 0.0
07/08:30pm 26.9 28.2 16.2 52 6.6 S 4 6 2 3 1010.4 - 0.0
07/08:00pm 27.5 28.6 16.5 51 6.9 S 6 7 3 4 1010.3 - 0.0
07/07:30pm 27.8 28.7 16.1 49 7.3 SSE 6 9 3 5 1010.3 - 0.0
07/07:00pm 28.5 29.2 16.1 47 7.7 S 7 11 4 6 1010.6 - 0.0
07/06:30pm 28.9 29.4 16.5 47 7.8 SE 9 13 5 7 1010.1 - 0.0
07/06:00pm 28.1 30.2 17.3 52 6.8 SSE 2 6 1 3 1010.6 1009.4 0.0
07/05:30pm 28.0 28.8 17.2 52 6.8 S 9 13 5 7 1010.9 - 0.0
07/05:00pm 29.1 28.6 16.0 45 8.1 SW 13 19 7 10 1011.3 - 0.0
07/04:30pm 29.2 28.7 16.0 44 8.2 S 13 17 7 9 1011.0 - 0.0
07/04:00pm 29.0 29.6 16.9 48 7.6 SSE 9 13 5 7 1011.0 - 0.0
07/03:30pm 29.4 29.9 16.6 46 8.0 SE 9 17 5 9 1011.4 - 0.0
07/03:00pm 29.4 29.7 16.9 47 7.9 S 11 15 6 8 1012.1 1010.9 0.0
07/02:30pm 29.7 28.9 16.1 43 8.5 SSE 15 20 8 11 1011.9 - 0.0
07/02:00pm 29.3 29.2 16.1 44 8.2 SSE 11 17 6 9 1012.4 - 0.0
07/01:30pm 29.5 29.4 16.0 44 8.4 SW 11 17 6 9 1012.8 - 0.0
07/01:00pm 29.6 28.8 16.1 44 8.4 S 15 24 8 13 1013.2 - 0.0
07/12:30pm 28.7 27.4 15.9 45 7.9 S 17 22 9 12 1013.3 - 0.0
07/12:00pm 29.0 28.9 15.9 45 8.1 SSE 11 19 6 10 1013.5 1012.6 0.0
07/11:30am 29.1 29.6 15.6 44 8.3 E 7 13 4 7 1013.9 - 0.0
07/11:00am 28.9 29.6 16.1 46 8.0 E 7 11 4 6 1014.3 - 0.0
07/10:30am 28.0 27.8 16.6 50 7.1 E 13 19 7 10 1013.9 - 0.0
07/10:00am 28.1 28.9 17.3 52 6.8 SSE 9 13 5 7 1014.7 - 0.0
07/09:30am 27.1 27.4 17.0 54 6.3 S 11 17 6 9 1015.6 - 0.0
07/09:00am 25.4 25.2 16.8 59 5.3 S 13 20 7 11 1015.2 1014.3 0.0
07/08:30am 24.5 24.3 16.7 61 4.8 SSE 13 19 7 10 1015.3 - 0.0
07/08:00am 23.9 22.9 16.7 64 4.4 ESE 17 24 9 13 1014.3 - 0.0
07/07:30am 23.8 22.4 16.6 64 4.4 S 19 24 10 13 1015.3 - 0.0
07/07:00am 23.8 22.7 17.3 67 4.0 S 19 24 10 13 1015.1 - 0.0
07/06:30am 23.6 23.8 17.6 69 3.8 ESE 13 19 7 10 1013.6 - 0.0
07/06:00am 23.6 23.8 17.6 69 3.8 SE 13 17 7 9 1013.7 1012.7 0.0
07/05:30am 23.6 23.6 17.1 67 4.0 SSE 13 19 7 10 1013.2 - 0.0
07/05:00am 23.7 23.3 17.2 67 4.0 SSE 15 17 8 9 1013.2 - 0.0
07/04:30am 23.7 23.6 17.0 66 4.2 SE 13 19 7 10 1012.4 - 0.0
07/04:00am 23.9 23.4 16.9 65 4.3 SE 15 19 8 10 1012.3 - 0.0
07/03:30am 24.1 23.7 17.1 65 4.3 S 15 19 8 10 1012.7 - 0.0
07/03:00am 24.0 24.0 17.3 66 4.2 SE 13 17 7 9 1011.9 1010.8 0.0
07/02:30am 24.1 24.4 17.8 68 4.0 SE 13 19 7 10 1012.1 - 0.0
07/02:00am 24.3 24.1 17.5 66 4.3 ESE 15 22 8 12 1012.1 - 0.0
07/01:30am 24.7 24.7 17.2 63 4.7 SE 13 19 7 10 1012.7 - 0.0
07/01:00am 24.9 25.0 17.4 63 4.7 SE 13 17 7 9 1013.3 - 0.0
07/12:30am 25.0 25.3 17.0 61 5.0 ESE 11 19 6 10 1013.0 - 0.0
07/12:00am 24.9 24.4 16.9 61 5.0 SE 15 26 8 14 1013.2 1012.1 0.0
 
Date/Time
EST
Temp
°C
App
Temp
°C
Dew
Point
°C
Rel
Hum
%
Delta-T
°C
Wind Press
QNH
hPa
Press
MSL
hPa
Rain since
9am
mm
Dir  Spd
km/h
Gust
km/h
Spd
kts
Gust
kts
06/11:30pm 25.3 23.3 16.4 57 5.5 S 22 32 12 17 1013.0 - 0.0
06/11:00pm 25.7 23.8 16.8 58 5.5 S 22 28 12 15 1013.4 - 0.0
06/10:30pm 26.3 23.2 16.5 54 6.1 S 28 35 15 19 1013.6 - 0.0
06/10:00pm 26.7 24.9 16.0 52 6.6 SSW 20 28 11 15 1013.6 - 0.0
06/09:30pm 26.8 25.9 15.8 51 6.8 S 15 20 8 11 1013.3 - 0.0
06/09:00pm 26.8 26.0 16.1 52 6.6 SE 15 20 8 11 1013.4 1012.3 0.0
06/08:30pm 26.9 25.6 15.9 51 6.8 SSE 17 22 9 12 1013.5 - 0.0
06/08:00pm 27.2 26.0 16.2 51 6.8 SSE 17 26 9 14 1013.6 - 0.0
06/07:30pm 27.2 24.0 16.2 51 6.8 S 28 37 15 20 1013.4 - 0.0
06/07:00pm 27.5 23.3 16.1 49 7.1 SSW 33 43 18 23 1013.2 - 0.0
06/06:30pm 28.2 22.0 15.8 47 7.7 SSW 43 54 23 29 1012.9 - 0.0
06/06:00pm 29.1 22.6 15.6 44 8.3 SSW 44 59 24 32 1012.2 1011.2 0.0
06/05:30pm 30.8 24.3 15.2 38 9.6 SSW 43 54 23 29 1011.6 - 0.0
06/05:00pm 31.3 23.4 14.9 37 10.1 SSW 50 61 27 33 1011.4 - 0.0
06/04:30pm 34.9 28.5 14.2 28 12.8 S 41 56 22 30 1010.5 - 0.0
06/04:00pm 34.3 28.1 13.7 29 12.6 SSW 39 57 21 31 1010.2 - 0.0
06/03:40pm 35.6 30.5 13.7 27 13.5 SSW 33 52 18 28 1010.0 - 0.0
06/03:30pm 37.6 32.4 12.9 23 15.1 SSW 32 41 17 22 1010.0 - 0.0
06/03:00pm 37.7 34.8 13.0 23 15.2 S 20 24 11 13 1010.2 1009.1 0.0
06/02:30pm 38.7 - - - - WSW 20 28 11 15 1010.6 - 0.0
06/02:00pm 37.5 34.0 13.5 24 14.8 SW 24 33 13 18 1011.0 - 0.0
06/01:30pm 38.2 36.3 14.1 24 15.1 S 17 32 9 17 1011.3 - 0.0
06/01:00pm 36.8 34.9 12.9 24 14.6 SSW 15 28 8 15 1011.7 - 0.0
06/12:30pm 36.5 35.6 12.7 24 14.5 SSE 9 20 5 11 1011.7 - 0.0
06/12:00pm 37.2 35.0 13.2 23 14.8 SW 17 24 9 13 1011.9 1010.8 0.0
06/11:30am 36.2 34.9 13.6 25 13.9 SSW 13 19 7 10 1012.2 - 0.0
06/11:00am 36.0 34.5 14.1 27 13.6 SSW 15 24 8 13 1012.8 - 0.0
06/10:30am 35.2 33.8 14.5 29 12.9 S 15 24 8 13 1012.9 - 0.0
06/10:00am 34.0 33.6 14.0 30 12.3 S 9 13 5 7 1012.9 - 0.0
06/09:30am 33.6 33.4 14.6 31 11.8 ESE 9 13 5 7 1012.9 - 0.0
06/09:00am 33.0 32.8 14.6 33 11.4 SSE 9 13 5 7 1013.5 1012.4 0.0
06/08:30am 32.4 31.8 14.5 33 11.0 S 11 15 6 8 1013.5 - 0.0

Other Formats:

Comma delimited format used in spreadsheet applications
http://www.bom.gov.au/fwo/IDQ60801/IDQ60801.95492.axf

JavaScript Object Notation format (JSON) in row-major order
http://www.bom.gov.au/fwo/IDQ60801/IDQ60801.95492.json